Time;durP1;ratioP1;P1;durP2;ratioP2;P2;SDS_P1;SDS_P2;PMS_P1;PMS_P2;Temp;Humidity;BMP_temperature;BMP_pressure;BME280_temperature;BME280_humidity;BME280_pressure;Samples;Min_cycle;Max_cycle;Signal;HPM_P1;HPM_P2
2022/11/23 00:01:38;;;;;;;17.60;11.03;;;27.70;89.10;;;;;;1835731;76;21831;-84
2022/11/23 00:04:12;;;;;;;18.25;11.33;;;27.70;89.00;;;;;;1859061;75;21075;-84
2022/11/23 00:06:43;;;;;;;17.48;11.08;;;27.70;89.10;;;;;;1849827;75;21880;-85
2022/11/23 00:09:17;;;;;;;27.65;17.30;;;27.70;89.00;;;;;;1868789;76;21708;-84
2022/11/23 00:11:47;;;;;;;26.93;15.98;;;27.70;89.10;;;;;;1844221;76;21165;-86
2022/11/23 00:14:20;;;;;;;21.12;12.93;;;27.70;89.20;;;;;;1851464;76;21154;-86
2022/11/23 00:16:50;;;;;;;17.55;11.78;;;27.70;89.10;;;;;;1837148;76;21177;-86
2022/11/23 00:19:21;;;;;;;13.93;10.03;;;27.80;89.20;;;;;;1832946;76;21245;-85
2022/11/23 00:21:52;;;;;;;15.98;9.50;;;27.80;88.80;;;;;;1828612;76;21239;-87
2022/11/23 00:24:23;;;;;;;17.17;10.05;;;27.80;88.80;;;;;;1816085;76;21143;-85
2022/11/23 00:26:54;;;;;;;15.03;9.83;;;27.80;88.50;;;;;;1831322;76;21221;-85
2022/11/23 00:29:26;;;;;;;16.75;11.95;;;27.80;88.60;;;;;;1836386;76;21688;-86
2022/11/23 00:31:57;;;;;;;18.85;11.20;;;27.90;88.80;;;;;;1814496;76;21163;-86
2022/11/23 00:34:29;;;;;;;15.88;10.00;;;27.90;88.60;;;;;;1846640;76;21228;-84
2022/11/23 00:37:03;;;;;;;15.00;9.20;;;27.90;88.50;;;;;;1827305;77;21158;-86
2022/11/23 00:39:36;;;;;;;14.75;8.55;;;27.90;88.40;;;;;;1847582;76;21145;-85
2022/11/23 00:42:07;;;;;;;11.73;8.20;;;27.90;88.10;;;;;;1862601;76;21111;-85
2022/11/23 00:44:38;;;;;;;14.53;8.78;;;27.90;88.20;;;;;;1845795;76;21069;-85
2022/11/23 00:47:09;;;;;;;17.48;8.75;;;28.00;88.10;;;;;;1839731;76;21139;-86
2022/11/23 00:49:39;;;;;;;14.33;8.78;;;28.00;87.90;;;;;;1829123;75;21234;-87
2022/11/23 00:52:10;;;;;;;13.18;8.60;;;28.00;87.80;;;;;;1819840;76;21190;-85
2022/11/23 00:54:41;;;;;;;11.75;8.23;;;28.00;87.50;;;;;;1822568;76;21124;-86
2022/11/23 00:57:12;;;;;;;13.03;8.73;;;28.00;87.40;;;;;;1826438;77;21972;-85
2022/11/23 00:59:43;;;;;;;16.80;8.90;;;28.10;87.60;;;;;;1829964;76;21116;-87
2022/11/23 01:02:14;;;;;;;14.38;8.73;;;28.10;87.70;;;;;;1851140;76;21176;-87
2022/11/23 01:04:46;;;;;;;12.45;8.60;;;28.10;87.70;;;;;;1836871;76;21082;-85
2022/11/23 01:07:17;;;;;;;13.70;8.38;;;28.10;87.30;;;;;;1836857;76;21134;-87
2022/11/23 01:09:48;;;;;;;15.90;8.73;;;28.10;87.10;;;;;;1835454;76;21105;-87
2022/11/23 01:12:19;;;;;;;14.05;7.85;;;28.20;86.90;;;;;;1828711;76;21104;-87
2022/11/23 01:14:53;;;;;;;11.93;7.65;;;28.20;86.70;;;;;;1844069;76;21154;-86
2022/11/23 01:17:27;;;;;;;13.93;7.87;;;28.20;86.50;;;;;;1823598;76;21174;-87
2022/11/23 01:19:59;;;;;;;13.15;7.12;;;28.20;86.20;;;;;;1829532;77;21186;-86
2022/11/23 01:22:31;;;;;;;13.03;7.58;;;28.30;86.20;;;;;;1845040;76;21268;-86
2022/11/23 01:25:02;;;;;;;11.65;6.47;;;28.30;86.10;;;;;;1839288;76;21170;-87
2022/11/23 01:27:36;;;;;;;12.43;6.87;;;28.30;86.00;;;;;;1863176;76;21196;-86
2022/11/23 01:30:07;;;;;;;13.15;7.78;;;28.30;86.00;;;;;;1839176;76;21258;-86
2022/11/23 01:32:38;;;;;;;12.60;6.85;;;28.30;85.90;;;;;;1794953;78;21212;-86
2022/11/23 01:35:39;;;;;;;11.18;6.97;;;28.30;85.90;;;;;;1831716;76;21191;-85
2022/11/23 01:38:10;;;;;;;11.83;6.35;;;28.40;85.90;;;;;;1842506;76;21756;-86
2022/11/23 01:40:43;;;;;;;10.05;6.17;;;28.30;85.70;;;;;;1852628;76;21201;-86
2022/11/23 01:43:16;;;;;;;12.60;6.67;;;28.30;85.80;;;;;;1842879;75;21678;-85
2022/11/23 01:45:52;;;;;;;11.77;6.90;;;28.40;85.80;;;;;;1841707;76;21217;-85
2022/11/23 01:48:34;;;;;;;10.00;6.12;;;28.40;85.70;;;;;;1838871;75;21213;-87
2022/11/23 01:51:16;;;;;;;11.28;6.12;;;28.40;85.70;;;;;;1852087;76;21621;-86
2022/11/23 01:53:50;;;;;;;11.70;6.28;;;28.50;85.60;;;;;;1834370;76;21119;-86
2022/11/23 01:56:33;;;;;;;14.20;6.62;;;28.50;85.60;;;;;;1855504;76;21110;-87
2022/11/23 01:59:08;;;;;;;6.80;5.35;;;28.50;85.70;;;;;;1793442;77;21237;-86
2022/11/23 02:01:46;;;;;;;10.75;5.62;;;28.50;85.10;;;;;;1858088;75;21147;-87
2022/11/23 02:04:19;;;;;;;15.98;6.55;;;28.50;85.00;;;;;;1798531;78;21112;-85
2022/11/23 02:06:52;;;;;;;8.85;5.50;;;28.50;85.00;;;;;;1814985;77;21765;-85
2022/11/23 02:09:24;;;;;;;7.33;5.25;;;28.50;85.00;;;;;;1849773;76;21154;-86
2022/11/23 02:11:55;;;;;;;9.13;5.55;;;28.60;85.00;;;;;;1837231;76;21162;-84
2022/11/23 02:14:26;;;;;;;13.22;5.97;;;28.60;85.10;;;;;;1812507;77;21275;-86
2022/11/23 02:16:58;;;;;;;8.60;5.80;;;28.60;85.20;;;;;;1845880;76;21154;-86
2022/11/23 02:19:35;;;;;;;10.80;6.50;;;28.60;85.10;;;;;;1859385;75;21236;-87
2022/11/23 02:22:12;;;;;;;9.28;6.70;;;28.70;85.20;;;;;;1844263;76;21165;-86
2022/11/23 02:24:45;;;;;;;13.75;6.35;;;28.70;85.10;;;;;;1841555;77;21609;-85
2022/11/23 02:27:16;;;;;;;11.40;5.95;;;28.80;85.10;;;;;;1827433;77;21237;-87
2022/11/23 02:29:52;;;;;;;10.05;5.72;;;28.80;84.90;;;;;;1852472;76;21059;-87
2022/11/23 02:32:33;;;;;;;10.85;5.67;;;28.90;84.70;;;;;;1832836;76;21185;-89
2022/11/23 02:35:18;;;;;;;8.58;4.62;;;29.00;84.20;;;;;;1858401;76;21128;-87
2022/11/23 02:37:41;;;;;;;7.22;4.47;;;29.10;83.70;;;;;;1820902;76;21141;-88
2022/11/23 02:40:17;;;;;;;8.78;4.55;;;29.20;83.10;;;;;;1800077;78;21313;-90
2022/11/23 02:42:51;;;;;;;5.65;4.37;;;29.20;83.10;;;;;;1814501;75;21160;-89
2022/11/23 02:45:28;;;;;;;8.90;4.90;;;29.20;82.70;;;;;;1827995;76;21161;-86
2022/11/23 02:47:59;;;;;;;6.87;4.22;;;29.30;82.90;;;;;;1838735;76;21240;-88
2022/11/23 02:50:48;;;;;;;6.05;3.80;;;29.30;82.50;;;;;;1843872;75;21161;-86
2022/11/23 02:53:37;;;;;;;10.65;4.80;;;29.30;82.00;;;;;;1846306;76;21107;-88
2022/11/23 02:56:08;;;;;;;7.22;4.25;;;29.40;81.90;;;;;;1842661;76;21662;-87
2022/11/23 02:58:40;;;;;;;6.97;4.35;;;29.40;82.00;;;;;;1836616;76;21612;-89
2022/11/23 03:01:13;;;;;;;5.87;4.22;;;29.40;81.80;;;;;;1833769;77;21113;-88
2022/11/23 03:03:58;;;;;;;6.50;4.47;;;29.40;81.90;;;;;;1833754;77;21114;-87
2022/11/23 03:06:27;;;;;;;10.18;4.85;;;29.40;81.90;;;;;;1764409;77;21597;-86
2022/11/23 03:08:59;;;;;;;7.42;4.60;;;29.40;82.00;;;;;;1852032;75;21111;-89
2022/11/23 03:11:30;;;;;;;6.05;4.37;;;29.40;82.20;;;;;;1834341;77;21042;-89
2022/11/23 03:14:01;;;;;;;7.33;4.67;;;29.40;82.40;;;;;;1783638;78;21208;-89
2022/11/23 03:16:35;;;;;;;7.55;5.40;;;29.40;82.20;;;;;;1799730;78;21244;-88
2022/11/23 03:19:04;;;;;;;8.48;5.65;;;29.50;82.30;;;;;;1854036;76;21156;-88
2022/11/23 03:21:36;;;;;;;7.42;4.87;;;29.60;82.20;;;;;;1832302;76;21623;-87
2022/11/23 03:24:10;;;;;;;8.38;5.00;;;29.70;82.20;;;;;;1830214;76;21195;-88
2022/11/23 03:26:41;;;;;;;6.22;3.98;;;29.80;82.00;;;;;;1833260;76;21145;-88
2022/11/23 03:29:11;;;;;;;6.65;4.58;;;29.90;81.80;;;;;;1823253;76;21217;-87
2022/11/23 03:31:42;;;;;;;7.15;3.70;;;29.90;81.50;;;;;;1831688;76;21178;-88
2022/11/23 03:34:13;;;;;;;6.53;4.67;;;30.00;81.30;;;;;;1829870;76;21130;-88
2022/11/23 03:36:45;;;;;;;6.97;4.17;;;30.00;81.20;;;;;;1856741;76;21164;-89
2022/11/23 03:39:37;;;;;;;11.38;4.30;;;30.10;81.10;;;;;;1823938;77;21172;-89
2022/11/23 03:42:27;;;;;;;5.10;3.55;;;30.20;81.30;;;;;;1790424;78;21104;-88
2022/11/23 03:45:02;;;;;;;6.10;3.80;;;30.20;80.70;;;;;;1819121;77;21138;-87
2022/11/23 03:47:33;;;;;;;9.13;4.00;;;30.20;80.50;;;;;;1837196;76;21100;-87
2022/11/23 03:52:58;;;;;;;6.15;3.50;;;30.30;80.60;;;;;;1832720;76;21225;-88
2022/11/23 03:55:46;;;;;;;5.58;3.85;;;30.30;80.50;;;;;;1860729;75;21149;-88
2022/11/23 03:58:29;;;;;;;5.83;3.60;;;30.30;80.50;;;;;;1813289;77;21204;-88
2022/11/23 04:01:37;;;;;;;6.25;4.08;;;30.30;80.00;;;;;;1805930;78;21215;-89
2022/11/23 04:04:09;;;;;;;7.08;3.75;;;30.30;80.10;;;;;;1829592;76;21471;-88
2022/11/23 04:06:40;;;;;;;7.85;3.30;;;30.30;80.50;;;;;;1813516;77;21919;-89
2022/11/23 04:09:17;;;;;;;7.35;3.40;;;30.40;80.40;;;;;;1806839;77;21187;-88
2022/11/23 04:11:55;;;;;;;7.12;3.40;;;30.40;80.30;;;;;;1788286;78;21255;-88
2022/11/23 04:14:27;;;;;;;4.40;2.92;;;30.40;80.30;;;;;;1819530;77;21866;-87
2022/11/23 04:17:01;;;;;;;5.35;3.45;;;30.50;80.30;;;;;;1788870;78;21170;-90
2022/11/23 04:19:32;;;;;;;6.72;3.45;;;30.50;80.80;;;;;;1816557;77;21189;-88
2022/11/23 04:22:06;;;;;;;6.10;3.70;;;30.50;80.40;;;;;;1876549;74;21243;-88
2022/11/23 04:24:38;;;;;;;4.65;3.27;;;30.50;80.10;;;;;;1852784;75;21165;-90
2022/11/23 04:27:09;;;;;;;5.08;2.80;;;30.50;80.30;;;;;;1846128;76;21148;-89
2022/11/23 04:29:40;;;;;;;3.85;2.77;;;30.50;80.50;;;;;;1843166;75;21309;-85
2022/11/23 04:32:11;;;;;;;5.25;3.10;;;30.50;80.50;;;;;;1858140;74;21146;-85
2022/11/23 04:34:41;;;;;;;4.12;2.30;;;30.50;80.30;;;;;;1863594;74;21169;-84
2022/11/23 04:37:14;;;;;;;4.22;2.70;;;30.60;80.20;;;;;;1875290;74;21098;-86
2022/11/23 04:39:45;;;;;;;4.25;2.37;;;30.60;80.20;;;;;;1872835;75;21151;-85
2022/11/23 04:42:16;;;;;;;4.35;2.75;;;30.60;80.10;;;;;;1871254;75;21165;-85
2022/11/23 04:44:47;;;;;;;5.17;2.70;;;30.50;80.20;;;;;;1836126;76;21155;-85
2022/11/23 04:47:18;;;;;;;3.50;2.33;;;30.50;80.20;;;;;;1829818;77;21660;-85
2022/11/23 04:49:49;;;;;;;4.95;2.52;;;30.50;80.30;;;;;;1853819;75;21174;-86
2022/11/23 04:52:20;;;;;;;4.20;2.22;;;30.50;80.30;;;;;;1858978;76;21157;-85
2022/11/23 04:54:51;;;;;;;3.80;2.17;;;30.60;80.30;;;;;;1854212;76;21187;-86
2022/11/23 04:57:21;;;;;;;3.00;1.87;;;30.70;80.10;;;;;;1814163;78;21164;-87
2022/11/23 04:59:52;;;;;;;3.50;1.70;;;30.80;79.80;;;;;;1840538;76;21222;-86
2022/11/23 05:02:23;;;;;;;3.02;1.60;;;30.80;79.60;;;;;;1836143;76;21176;-86
2022/11/23 05:04:54;;;;;;;3.80;1.57;;;30.80;79.50;;;;;;1883034;75;21104;-86
2022/11/23 05:07:25;;;;;;;3.25;1.80;;;30.80;79.30;;;;;;1869247;75;21131;-86
2022/11/23 05:09:56;;;;;;;2.37;1.30;;;30.80;78.90;;;;;;1844064;76;21101;-87
2022/11/23 05:12:35;;;;;;;2.30;1.27;;;30.80;78.70;;;;;;1870770;75;21164;-85
2022/11/23 05:15:07;;;;;;;3.05;1.60;;;30.80;78.80;;;;;;1863382;76;21127;-85
2022/11/23 05:17:40;;;;;;;2.50;1.47;;;30.80;78.90;;;;;;1839269;76;21247;-86
2022/11/23 05:20:11;;;;;;;2.17;1.40;;;30.80;79.30;;;;;;1832546;77;21216;-86
2022/11/23 05:22:43;;;;;;;6.12;1.85;;;30.80;79.00;;;;;;1880721;75;21192;-86
2022/11/23 05:25:14;;;;;;;3.15;1.60;;;30.80;79.20;;;;;;1870797;76;21135;-87
2022/11/23 05:27:46;;;;;;;7.65;1.90;;;30.80;79.20;;;;;;1873266;73;21572;-86
2022/11/23 05:30:18;;;;;;;3.80;1.70;;;30.70;79.20;;;;;;1875622;75;21174;-86
2022/11/23 05:32:52;;;;;;;2.40;1.70;;;30.80;79.40;;;;;;1877911;75;21230;-85
2022/11/23 05:35:28;;;;;;;4.47;1.90;;;30.80;79.40;;;;;;1866631;76;21136;-87
2022/11/23 05:37:59;;;;;;;2.77;2.05;;;30.80;79.30;;;;;;1849989;75;21236;-85
2022/11/23 05:40:32;;;;;;;5.95;1.70;;;30.90;79.40;;;;;;1864801;75;21201;-86
2022/11/23 05:43:03;;;;;;;3.42;2.00;;;30.90;79.40;;;;;;1870412;75;21109;-85
2022/11/23 05:45:33;;;;;;;4.25;2.10;;;30.90;80.30;;;;;;1831693;77;21252;-87
2022/11/23 05:48:05;;;;;;;2.77;1.85;;;30.80;79.40;;;;;;1856863;75;21186;-86
2022/11/23 05:50:36;;;;;;;6.92;2.00;;;30.90;79.20;;;;;;1860096;75;21217;-86
2022/11/23 05:53:07;;;;;;;7.80;1.87;;;30.90;79.30;;;;;;1881340;74;21217;-87
2022/11/23 05:55:38;;;;;;;2.67;1.62;;;30.90;79.10;;;;;;1867494;76;21086;-89
2022/11/23 05:58:12;;;;;;;3.92;1.80;;;31.00;78.70;;;;;;1862955;76;21215;-89
2022/11/23 06:00:53;;;;;;;6.08;1.70;;;31.10;78.90;;;;;;1847747;76;21140;-87
2022/11/23 06:03:26;;;;;;;4.25;2.20;;;31.30;78.60;;;;;;1893591;74;21112;-88
2022/11/23 06:05:59;;;;;;;5.60;1.87;;;31.40;78.00;;;;;;1884872;75;21073;-88
2022/11/23 06:08:33;;;;;;;16.73;3.33;;;31.60;77.90;;;;;;1856876;76;21147;-88
2022/11/23 06:11:07;;;;;;;5.08;1.60;;;31.70;77.00;;;;;;1802000;78;21141;-87
2022/11/23 06:13:51;;;;;;;35.65;4.35;;;31.70;77.10;;;;;;1833546;77;21242;-88
2022/11/23 06:16:23;;;;;;;3.35;1.70;;;31.70;77.20;;;;;;1827894;77;21114;-91
2022/11/23 06:18:53;;;;;;;4.85;2.77;;;31.80;77.10;;;;;;1885316;75;21631;-89
2022/11/23 06:21:27;;;;;;;7.47;2.60;;;31.80;76.70;;;;;;1875076;75;21311;-91
2022/11/23 06:23:58;;;;;;;3.85;1.85;;;31.80;76.70;;;;;;1863011;74;21188;-88
2022/11/23 06:26:35;;;;;;;11.65;2.65;;;31.80;77.00;;;;;;1861722;76;21148;-88
2022/11/23 06:29:06;;;;;;;5.40;2.10;;;31.80;76.90;;;;;;1877604;76;21178;-88
2022/11/23 06:31:37;;;;;;;6.60;2.20;;;31.70;76.40;;;;;;1860644;76;21141;-88
2022/11/23 06:34:09;;;;;;;3.45;1.75;;;31.80;76.90;;;;;;1860157;76;21137;-90
2022/11/23 06:36:40;;;;;;;3.67;1.57;;;31.90;76.20;;;;;;1856891;76;21164;-88
2022/11/23 06:39:12;;;;;;;4.85;2.10;;;31.90;76.00;;;;;;1858701;76;21529;-89
2022/11/23 06:41:48;;;;;;;3.65;1.98;;;31.90;75.90;;;;;;1875068;75;21479;-89
2022/11/23 06:44:19;;;;;;;4.67;2.15;;;32.00;76.20;;;;;;1880780;76;21180;-89
2022/11/23 06:46:51;;;;;;;4.40;2.12;;;31.90;76.60;;;;;;1874221;76;21091;-88
2022/11/23 06:49:27;;;;;;;3.20;1.72;;;31.90;77.70;;;;;;1817276;77;21211;-90
2022/11/23 06:52:07;;;;;;;3.37;2.12;;;31.90;76.60;;;;;;1881547;76;21096;-88
2022/11/23 06:54:43;;;;;;;;;;;31.90;76.30;;;;;;1857740;76;21095;-87
2022/11/23 06:57:14;;;;;;;4.25;1.85;;;31.80;76.60;;;;;;1858111;76;20168;-88
2022/11/23 06:59:45;;;;;;;2.90;1.98;;;31.70;77.10;;;;;;1855328;76;21125;-89
2022/11/23 07:02:19;;;;;;;4.60;2.05;;;31.60;77.60;;;;;;1854956;75;21136;-87
2022/11/23 07:04:53;;;;;;;5.75;2.20;;;31.40;78.30;;;;;;1873632;75;21164;-85
2022/11/23 07:07:31;;;;;;;6.45;1.90;;;31.30;79.00;;;;;;1820444;75;21236;-89
2022/11/23 07:10:09;;;;;;;5.08;2.20;;;31.10;79.50;;;;;;1877349;76;21158;-90
2022/11/23 07:12:42;;;;;;;3.12;1.77;;;31.00;79.70;;;;;;1831549;76;21635;-90
2022/11/23 07:15:15;;;;;;;3.50;1.80;;;30.90;80.10;;;;;;1877696;75;21058;-90
2022/11/23 07:17:47;;;;;;;3.40;2.02;;;30.90;80.80;;;;;;1839091;76;21193;-88
2022/11/23 07:20:18;;;;;;;3.52;1.75;;;30.70;82.10;;;;;;1860308;76;21163;-90
2022/11/23 07:23:00;;;;;;;3.83;1.98;;;30.70;81.70;;;;;;1881502;74;21183;-89
2022/11/23 07:25:40;;;;;;;4.10;2.22;;;30.60;82.00;;;;;;1856450;76;21177;-88
2022/11/23 07:28:22;;;;;;;4.70;1.65;;;30.60;82.20;;;;;;1868425;73;21112;-89
2022/11/23 07:30:58;;;;;;;3.65;1.98;;;30.60;82.20;;;;;;1852128;76;21130;-90
2022/11/23 07:33:30;;;;;;;6.17;2.00;;;30.60;82.70;;;;;;1890224;74;21600;-88
2022/11/23 07:36:06;;;;;;;7.05;2.42;;;30.60;82.90;;;;;;1870425;75;21167;-89
2022/11/23 07:38:36;;;;;;;3.98;2.30;;;30.60;82.80;;;;;;1853854;75;21086;-90
2022/11/23 07:41:13;;;;;;;8.13;2.67;;;30.70;83.00;;;;;;1867814;75;21216;-89
2022/11/23 07:43:44;;;;;;;4.60;2.20;;;30.70;82.50;;;;;;1852032;75;21199;-89
2022/11/23 07:46:14;;;;;;;5.10;2.22;;;30.70;82.40;;;;;;1831243;78;21273;-88
2022/11/23 07:48:48;;;;;;;4.95;2.40;;;30.70;82.60;;;;;;1821919;77;21124;-91
2022/11/23 07:51:19;;;;;;;4.58;2.30;;;30.70;82.60;;;;;;1822369;77;21183;-89
2022/11/23 07:54:07;;;;;;;6.50;2.20;;;30.70;82.40;;;;;;1812928;76;21082;-90
2022/11/23 07:56:40;;;;;;;4.17;2.30;;;30.70;82.20;;;;;;1859740;74;21043;-89
2022/11/23 07:59:11;;;;;;;4.55;2.15;;;30.70;82.10;;;;;;1894440;75;21136;-90
2022/11/23 08:01:45;;;;;;;6.47;2.70;;;30.70;82.00;;;;;;1852291;76;21277;-89
2022/11/23 08:04:21;;;;;;;9.58;2.90;;;30.60;82.10;;;;;;1881483;74;21160;-88
2022/11/23 08:06:54;;;;;;;6.37;2.83;;;30.60;83.00;;;;;;1882970;74;21659;-88
2022/11/23 08:09:25;;;;;;;5.50;2.52;;;30.50;83.80;;;;;;1851870;73;21092;-88
2022/11/23 08:11:56;;;;;;;6.85;2.67;;;30.40;84.00;;;;;;1842681;76;21210;-87
2022/11/23 08:14:46;;;;;;;12.73;3.52;;;30.40;84.60;;;;;;1882655;75;21171;-89
2022/11/23 08:17:17;;;;;;;7.37;2.92;;;30.40;84.80;;;;;;1841228;76;21895;-85
2022/11/23 08:19:50;;;;;;;4.62;2.47;;;30.30;84.70;;;;;;1812226;77;21214;-86
2022/11/23 08:22:26;;;;;;;3.87;2.58;;;30.30;84.90;;;;;;1840205;76;21215;-82
2022/11/23 08:24:56;;;;;;;3.98;1.90;;;30.30;85.10;;;;;;1844100;76;21203;-89
2022/11/23 08:27:31;;;;;;;5.55;2.30;;;30.20;85.50;;;;;;1843018;76;21118;-89
2022/11/23 08:30:03;;;;;;;4.22;2.20;;;30.20;85.70;;;;;;1864473;76;21192;-89
2022/11/23 08:32:40;;;;;;;4.83;2.55;;;30.10;86.20;;;;;;1842530;74;21302;-88
2022/11/23 08:35:22;;;;;;;5.42;2.37;;;30.00;86.70;;;;;;1795248;78;21115;-87
2022/11/23 08:37:54;;;;;;;5.90;2.58;;;30.00;87.20;;;;;;1846339;76;21645;-84
2022/11/23 08:40:28;;;;;;;6.15;2.98;;;29.90;87.60;;;;;;1842729;77;21154;-85
2022/11/23 08:43:05;;;;;;;5.58;2.60;;;29.90;88.00;;;;;;1826662;76;21186;-85
2022/11/23 08:45:37;;;;;;;5.60;2.30;;;29.80;88.50;;;;;;1770828;78;21207;-85
2022/11/23 08:48:11;;;;;;;7.35;2.70;;;29.80;88.50;;;;;;1845458;74;21167;-85
2022/11/23 08:50:43;;;;;;;6.83;3.20;;;29.80;88.60;;;;;;1846769;75;21171;-86
2022/11/23 08:53:14;;;;;;;7.17;2.80;;;29.80;88.80;;;;;;1831789;76;21666;-86
2022/11/23 08:55:45;;;;;;;8.53;2.83;;;29.80;88.50;;;;;;1804897;76;21207;-84
2022/11/23 08:58:20;;;;;;;7.58;2.50;;;29.80;88.20;;;;;;1788369;78;21189;-84
2022/11/23 09:00:51;;;;;;;3.92;2.42;;;29.80;88.10;;;;;;1785053;78;21155;-88
2022/11/23 09:03:22;;;;;;;4.22;2.45;;;29.80;87.80;;;;;;1832346;75;21105;-85
2022/11/23 09:05:57;;;;;;;4.70;2.30;;;29.80;87.10;;;;;;1864182;75;21120;-84
2022/11/23 09:08:30;;;;;;;7.40;2.72;;;29.80;86.80;;;;;;1863187;74;21197;-84
2022/11/23 09:11:10;;;;;;;5.53;2.42;;;29.80;86.50;;;;;;1857716;75;21173;-84
2022/11/23 09:13:42;;;;;;;5.20;2.50;;;29.80;86.80;;;;;;1853194;75;21081;-85
2022/11/23 09:16:13;;;;;;;6.08;2.60;;;29.80;87.00;;;;;;1757482;78;21179;-85
2022/11/23 09:19:07;;;;;;;5.25;2.45;;;29.80;87.00;;;;;;1789335;78;21174;-86
2022/11/23 09:21:38;;;;;;;6.62;2.80;;;29.80;86.90;;;;;;1804720;76;21172;-86
2022/11/23 09:24:12;;;;;;;5.03;2.90;;;29.80;86.70;;;;;;1788779;78;21179;-85
2022/11/23 09:26:44;;;;;;;6.22;2.40;;;29.80;86.40;;;;;;1824006;76;22164;-86
2022/11/23 09:29:20;;;;;;;6.37;2.60;;;29.80;86.40;;;;;;1846397;77;21147;-86
2022/11/23 09:31:52;;;;;;;6.80;2.60;;;29.80;86.50;;;;;;1773513;79;21155;-86
2022/11/23 09:34:31;;;;;;;6.83;2.50;;;29.80;86.50;;;;;;1833667;76;21151;-84
2022/11/23 09:37:20;;;;;;;5.87;2.85;;;29.80;86.50;;;;;;1826800;77;21152;-83
2022/11/23 09:39:52;;;;;;;4.17;2.72;;;29.80;86.70;;;;;;1843521;77;21132;-85
2022/11/23 09:42:39;;;;;;;;;;;;;;;;;;;;;
2022/11/23 09:45:21;;;;;;;4.33;2.40;;;29.70;87.60;;;;;;1712952;82;21516;-87
2022/11/23 09:48:02;;;;;;;8.53;4.03;;;29.70;87.70;;;;;;1689889;85;21197;-85
2022/11/23 09:50:38;;;;;;;12.05;3.70;;;29.60;89.40;;;;;;1671453;84;21876;-85
2022/11/23 09:53:11;;;;;;;4.90;3.52;;;29.60;90.00;;;;;;1702934;83;21256;-84
2022/11/23 09:55:44;;;;;;;7.78;3.72;;;29.50;90.20;;;;;;1661499;84;21202;-83
2022/11/23 09:58:25;;;;;;;7.53;3.60;;;29.50;90.50;;;;;;1728277;81;21667;-82
2022/11/23 10:01:07;;;;;;;7.70;4.12;;;29.50;90.70;;;;;;1743991;81;21649;-85
2022/11/23 10:03:47;;;;;;;6.10;3.35;;;29.50;91.30;;;;;;1714724;82;21212;-83
2022/11/23 10:06:24;;;;;;;7.28;4.05;;;29.40;91.20;;;;;;1734133;81;21184;-82
2022/11/23 10:08:56;;;;;;;;;;;29.40;91.30;;;;;;1719317;81;21310;-85
2022/11/23 10:11:29;;;;;;;8.85;4.40;;;29.30;90.80;;;;;;1721559;81;20191;-85
2022/11/23 10:14:02;;;;;;;8.43;3.60;;;29.40;91.20;;;;;;1723104;80;21216;-82
2022/11/23 10:16:41;;;;;;;6.03;3.27;;;29.30;91.40;;;;;;1734406;81;21253;-85
2022/11/23 10:19:14;;;;;;;7.75;3.40;;;29.30;91.20;;;;;;1701286;82;21172;-86
2022/11/23 10:21:49;;;;;;;9.95;4.08;;;29.30;91.20;;;;;;1714595;80;21222;-86
2022/11/23 10:24:23;;;;;;;7.33;3.75;;;29.30;91.30;;;;;;1780573;77;21170;-83
2022/11/23 10:26:54;;;;;;;5.47;3.45;;;29.30;91.40;;;;;;1791667;76;21480;-83
2022/11/23 10:29:27;;;;;;;7.17;3.98;;;29.30;91.50;;;;;;1822579;76;21164;-85
2022/11/23 10:31:59;;;;;;;9.00;3.90;;;29.30;91.60;;;;;;1808471;76;21156;-85
2022/11/23 10:34:42;;;;;;;9.78;3.42;;;29.20;91.60;;;;;;1801891;78;21207;-84
2022/11/23 10:37:16;;;;;;;7.22;3.52;;;29.20;91.40;;;;;;1904216;73;21138;-85
2022/11/23 10:39:46;;;;;;;5.83;3.35;;;29.20;91.50;;;;;;1882941;75;21220;-85
2022/11/23 10:42:19;;;;;;;9.08;4.83;;;29.10;91.20;;;;;;1883306;76;21235;-84
2022/11/23 10:44:51;;;;;;;9.95;5.33;;;29.10;91.40;;;;;;1882337;75;21165;-85
2022/11/23 10:47:27;;;;;;;8.95;4.75;;;29.10;91.30;;;;;;1890249;75;21134;-83
2022/11/23 10:49:59;;;;;;;9.35;4.17;;;29.10;91.30;;;;;;1899738;74;21165;-85
2022/11/23 10:52:32;;;;;;;7.37;3.72;;;29.10;91.20;;;;;;1945926;73;21136;-84
2022/11/23 10:55:08;;;;;;;6.35;3.98;;;29.10;91.20;;;;;;1893837;73;21134;-85
2022/11/23 10:57:41;;;;;;;11.55;4.92;;;29.10;91.30;;;;;;1881216;75;21232;-85
2022/11/23 11:00:12;;;;;;;8.93;4.67;;;29.10;91.30;;;;;;1871747;76;21164;-84
2022/11/23 11:02:44;;;;;;;6.87;3.67;;;29.10;91.50;;;;;;1862054;77;21084;-85
2022/11/23 11:05:19;;;;;;;6.90;3.70;;;29.00;91.50;;;;;;1892920;76;21155;-85
2022/11/23 11:07:58;;;;;;;7.53;3.83;;;28.90;91.50;;;;;;1885478;76;21785;-86
2022/11/23 11:10:32;;;;;;;8.13;3.67;;;28.90;91.50;;;;;;1892774;76;21108;-85
2022/11/23 11:13:03;;;;;;;8.68;3.47;;;28.90;91.60;;;;;;1892163;75;21132;-84
2022/11/23 11:15:33;;;;;;;6.35;4.00;;;28.80;91.50;;;;;;1863587;77;21126;-85
2022/11/23 11:18:08;;;;;;;7.53;3.90;;;28.80;91.50;;;;;;1868511;76;21107;-85
2022/11/23 11:20:39;;;;;;;10.08;4.37;;;28.80;91.40;;;;;;1885470;75;21179;-85
2022/11/23 11:23:12;;;;;;;6.90;4.42;;;28.80;91.30;;;;;;1867254;76;21221;-84
2022/11/23 11:25:46;;;;;;;9.70;4.08;;;28.80;91.00;;;;;;1893806;75;21181;-85
2022/11/23 11:28:19;;;;;;;10.25;3.70;;;28.80;91.50;;;;;;1894317;76;21171;-84
2022/11/23 11:30:52;;;;;;;6.37;3.35;;;28.90;91.00;;;;;;1883438;75;21088;-85
2022/11/23 11:33:29;;;;;;;5.67;3.25;;;28.80;91.00;;;;;;1860887;76;22338;-85
2022/11/23 11:36:08;;;;;;;7.40;3.62;;;28.80;91.00;;;;;;1862374;77;21137;-84
2022/11/23 11:38:41;;;;;;;5.22;3.40;;;28.80;91.20;;;;;;1883167;76;21127;-85
2022/11/23 11:41:18;;;;;;;8.18;3.80;;;28.70;91.10;;;;;;1890885;75;21158;-84
2022/11/23 11:43:50;;;;;;;7.78;4.12;;;28.70;91.30;;;;;;1893235;76;21782;-83
2022/11/23 11:46:23;;;;;;;8.63;4.15;;;28.60;91.40;;;;;;1894069;76;21217;-85
2022/11/23 11:48:58;;;;;;;12.07;4.08;;;28.60;91.50;;;;;;1869808;75;21088;-84
2022/11/23 11:51:31;;;;;;;7.92;4.67;;;28.60;91.70;;;;;;1862578;77;21123;-83
2022/11/23 11:54:04;;;;;;;9.70;4.72;;;28.60;91.70;;;;;;1876855;75;21127;-84
2022/11/23 11:56:38;;;;;;;;;;;28.60;91.70;;;;;;1885241;75;21126;-84
2022/11/23 11:59:12;;;;;;;11.70;5.28;;;28.60;91.60;;;;;;1876268;76;20188;-84
2022/11/23 12:01:48;;;;;;;10.50;5.30;;;28.60;91.60;;;;;;1875854;75;21528;-84
2022/11/23 12:04:24;;;;;;;10.60;5.47;;;28.60;91.60;;;;;;1886615;76;21123;-84
2022/11/23 12:06:59;;;;;;;8.90;4.85;;;28.60;91.70;;;;;;1876547;75;21143;-85
2022/11/23 12:09:43;;;;;;;12.10;5.62;;;28.60;91.70;;;;;;1891462;76;21152;-83
2022/11/23 12:12:23;;;;;;;11.03;5.47;;;28.60;91.70;;;;;;1894759;75;21098;-84
2022/11/23 12:14:56;;;;;;;15.98;6.15;;;28.60;91.90;;;;;;1884893;75;21179;-85
2022/11/23 12:17:39;;;;;;;10.03;5.33;;;28.50;92.00;;;;;;1882152;75;21193;-84
2022/11/23 12:20:09;;;;;;;10.10;5.25;;;28.50;92.00;;;;;;1867814;76;21197;-85
2022/11/23 12:22:43;;;;;;;9.33;5.15;;;28.40;92.40;;;;;;1863014;76;21068;-83
2022/11/23 12:25:18;;;;;;;45.90;7.35;;;28.40;91.90;;;;;;1873805;76;21119;-85
2022/11/23 12:27:56;;;;;;;17.45;5.50;;;28.40;91.70;;;;;;1867109;76;21575;-85
2022/11/23 12:30:25;;;;;;;13.50;3.33;;;28.40;92.40;;;;;;1876657;76;21128;-83
2022/11/23 12:32:58;;;;;;;11.97;3.17;;;28.40;92.90;;;;;;1888955;76;21107;-86
2022/11/23 12:35:31;;;;;;;13.83;4.03;;;28.20;92.90;;;;;;1882167;76;21147;-86
2022/11/23 12:38:04;;;;;;;10.00;3.20;;;28.00;93.40;;;;;;1870386;76;21134;-85
2022/11/23 12:40:36;;;;;;;10.70;2.12;;;27.80;93.50;;;;;;1889531;76;21095;-86
2022/11/23 12:43:10;;;;;;;4.58;1.70;;;27.60;93.60;;;;;;1874349;75;21171;-85
2022/11/23 12:45:49;;;;;;;4.28;1.60;;;27.30;93.60;;;;;;1870829;75;21560;-86
2022/11/23 12:48:29;;;;;;;6.78;2.15;;;27.20;94.00;;;;;;1866889;74;21104;-85
2022/11/23 12:51:09;;;;;;;7.17;2.17;;;27.00;94.50;;;;;;1859090;76;21155;-86
2022/11/23 12:53:44;;;;;;;6.72;1.87;;;27.00;94.90;;;;;;1872159;76;21125;-85
2022/11/23 12:56:22;;;;;;;7.25;1.80;;;26.90;95.40;;;;;;1859871;75;21224;-89
2022/11/23 12:58:56;;;;;;;4.55;1.80;;;26.80;95.40;;;;;;1860211;76;21111;-85
2022/11/23 13:01:31;;;;;;;5.45;1.98;;;26.70;95.80;;;;;;1903436;73;21163;-85
2022/11/23 13:04:03;;;;;;;3.47;1.70;;;26.70;96.30;;;;;;1909946;73;21084;-84
2022/11/23 13:06:42;;;;;;;6.22;1.67;;;26.60;96.50;;;;;;1910232;73;21177;-83
2022/11/23 13:09:19;;;;;;;5.65;2.05;;;26.60;96.70;;;;;;1895769;73;21115;-85
2022/11/23 13:11:52;;;;;;;5.00;1.70;;;26.60;97.00;;;;;;1917243;73;21143;-85
2022/11/23 13:14:26;;;;;;;4.92;1.50;;;26.60;97.30;;;;;;1898656;73;21682;-84
2022/11/23 13:17:01;;;;;;;4.45;1.57;;;26.60;97.30;;;;;;1931701;73;21163;-86
2022/11/23 13:19:33;;;;;;;3.22;1.90;;;26.50;97.00;;;;;;1932232;73;21637;-85
2022/11/23 13:22:06;;;;;;;6.20;2.00;;;26.50;97.40;;;;;;1905966;75;21126;-84
2022/11/23 13:24:40;;;;;;;4.08;1.55;;;26.60;97.40;;;;;;1917494;74;21638;-86